Aviation Digital Data Service (ADDS)

Output produced by METARs form (1710 UTC 03 December 2021)
found at http://www.aviationweather.gov/metar/data/
 
VTBD 031700Z 07003KT 9999 FEW030 24/15 Q1017 NOSIG
VTBD 031630Z 02003KT 9999 FEW030 23/16 Q1017 NOSIG
VTBD 031600Z 01004KT 9999 FEW030 24/15 Q1017 NOSIG
VTBD 031530Z 07004KT 9999 FEW030 24/15 Q1017 NOSIG
VTBD 031500Z 05004KT 9999 FEW030 24/15 Q1018 NOSIG
VTBD 031430Z 04005KT 9999 FEW030 24/15 Q1017 NOSIG
VTBD 031400Z 05006KT 9999 FEW030 25/15 Q1017 NOSIG
VTBD 031330Z 05006KT 9999 FEW030 25/15 Q1017 NOSIG
VTBD 031300Z 04006KT 9999 FEW030 25/14 Q1016 NOSIG
VTBD 031230Z 03006KT 9999 FEW030 25/15 Q1016 NOSIG
VTBD 031200Z 03009KT 9999 FEW030 26/14 Q1015 NOSIG
VTBD 031130Z 02009KT 9999 FEW030 26/14 Q1014 NOSIG
VTBD 031100Z 02009KT 9999 FEW030 27/14 Q1014 NOSIG
VTBD 031030Z 02010KT 9999 FEW030 28/14 Q1014 NOSIG
VTBD 031000Z 01010KT 9999 FEW030 29/15 Q1013 NOSIG
VTBD 030930Z 34009KT 300V050 9999 FEW030 29/15 Q1013 NOSIG
VTBD 030900Z 33009KT 300V010 9999 FEW030 29/15 Q1013 NOSIG
VTBD 030830Z 35008KT 320V020 9999 FEW030 29/16 Q1013 NOSIG
VTBD 030800Z 35007KT 290V040 9999 FEW030 29/16 Q1013 NOSIG
VTBD 030730Z 36005KT 300V050 9999 FEW030 29/16 Q1013 NOSIG
VTBD 030700Z 16003KT 050V220 9999 FEW030 29/18 Q1014 NOSIG
VTBD 030630Z VRB04KT 9999 FEW030 29/18 Q1014 NOSIG
VTBD 030600Z 05006KT 020V090 9999 FEW030 28/17 Q1015 NOSIG
VTBD 030530Z 05005KT 330V110 9999 FEW030 28/17 Q1016 NOSIG
VTBD 030500Z 05005KT 310V120 9999 FEW030 28/16 Q1016 NOSIG
VTBD 030430Z VRB04KT 9999 FEW030 28/16 Q1017 NOSIG
VTBD 030400Z 07005KT 360V120 CAVOK 27/16 Q1018 NOSIG
VTBD 030330Z 07006KT 360V140 CAVOK 27/16 Q1018 NOSIG
VTBD 030300Z 07005KT 020V120 CAVOK 26/16 Q1018 NOSIG
VTBD 030230Z VRB02KT CAVOK 26/17 Q1018 NOSIG
VTBD 030200Z VRB02KT CAVOK 25/16 Q1018 NOSIG
VTBD 030130Z 04003KT 340V080 CAVOK 24/16 Q1018 NOSIG
VTBD 030100Z 02005KT 360V060 CAVOK 23/17 Q1017 NOSIG
VTBD 030030Z 04004KT CAVOK 23/18 Q1017 NOSIG
VTBD 030000Z 05002KT CAVOK 22/17 Q1016 NOSIG
VTBD 022330Z 00000KT 9999 FEW030 22/17 Q1016 NOSIG
VTBD 022300Z 04004KT 9999 FEW030 20/17 Q1015 NOSIG
VTBD 022230Z 02003KT 9999 FEW030 21/17 Q1015 NOSIG
VTBD 022200Z 04003KT 9999 FEW030 21/17 Q1015 NOSIG
VTBD 022130Z 02003KT 9999 FEW030 22/17 Q1015 NOSIG
VTBD 022100Z 01004KT 9999 FEW030 22/17 Q1015 NOSIG
VTBD 022030Z 03004KT 9999 FEW030 22/17 Q1015 NOSIG
VTBD 022000Z 04003KT 9999 FEW030 22/17 Q1015 NOSIG
VTBD 021930Z 04003KT 9999 FEW030 22/17 Q1015 NOSIG
VTBD 021900Z 33003KT 9999 FEW030 23/17 Q1015 NOSIG
VTBD 021830Z 35003KT 9999 FEW030 23/17 Q1015 NOSIG
VTBD 021800Z 35002KT 9999 FEW030 23/17 Q1015 NOSIG
VTBD 021730Z 35004KT 9999 FEW030 23/17 Q1016 NOSIG
VTBD 021700Z 32005KT 9999 FEW030 24/18 Q1016 NOSIG
VTBD 021630Z 31004KT 9999 FEW030 24/18 Q1016 NOSIG
TAF VTBD 031100Z 0312/0418 36005KT 9999 FEW030 
     BECMG 0320/0322 06005KT 
     BECMG 0409/0411 36005KT